Tiger — 9HA2271 — position and weather

sailwx.info

Track history (hours):
 
Tides and Currents Weather Stations Pressure Air Temp Water Temp Dewpoint Dewpoint Depression Visibility Wind Speed Wind Dir Waves Ship Positions

Tiger

Last reported at 2017-Jun-17 12:33 UTC. Time now 2017-Jun-23 13:53 UTC.
Position S 26°40' E 153°14'.

Length 231 m; draft 8 m.

Type: Cargo ship. MMSI: 248223000.

Date/timePositionNaut miles runAvg speedWind from/ knotsBaromVisibWave heightAir tempDewpointWater temp
2017-Jun-17 12:33S 26°40' E 153°14'217.4
2017-Jun-17 12:27S 26°41' E 153°12'511.5
2017-Jun-17 11:59S 26°46' E 153°11'714.8
2017-Jun-17 11:30S 26°53' E 153°10'817.0
2017-Jun-17 11:00S 27°01' E 153°15'815.9
2017-Jun-17 10:30S 27°07' E 153°20'815.7
2017-Jun-17 10:00S 27°15' E 153°19'815.7
2017-Jun-17 09:30S 27°20' E 153°12'4 7.0
2017-Jun-17 09:00S 27°23' E 153°10'0 0.0
2017-Jun-17 08:28S 27°23' E 153°10'0 0.0
2017-Jun-17 07:58S 27°23' E 153°10'0 0.0
2017-Jun-17 07:28S 27°23' E 153°10'0 0.0
2017-Jun-17 06:58S 27°23' E 153°10'0 0.0
2017-Jun-17 06:28S 27°23' E 153°10'0 0.0
2017-Jun-17 05:58S 27°23' E 153°10'0 0.0
2017-Jun-17 05:28S 27°23' E 153°10'0 0.0
2017-Jun-17 04:58S 27°23' E 153°10'0 0.0
2017-Jun-17 04:19S 27°23' E 153°10'0 0.0
2017-Jun-17 03:58S 27°23' E 153°10'0 0.0
2017-Jun-17 03:28S 27°23' E 153°10'0 0.0
2017-Jun-17 02:58S 27°23' E 153°10'0 0.0
2017-Jun-17 02:28S 27°23' E 153°10'0 0.0
2017-Jun-17 02:00S 27°23' E 153°10'0 0.0
2017-Jun-17 01:28S 27°23' E 153°10'0 0.0
2017-Jun-17 00:58S 27°23' E 153°10'0 0.0
2017-Jun-17 00:28S 27°23' E 153°10'0 0.0
2017-Jun-17 00:01S 27°23' E 153°10'0 0.0
2017-Jun-16 23:28S 27°23' E 153°10'0 0.0
2017-Jun-16 22:58S 27°23' E 153°10'0 0.2
2017-Jun-16 22:31S 27°23' E 153°10'3 6.4
2017-Jun-16 22:00S 27°20' E 153°12'713.6
2017-Jun-16 21:30S 27°15' E 153°18'815.2
2017-Jun-16 21:00S 27°09' E 153°21'815.1
2017-Jun-16 20:30S 27°03' E 153°16'714.8
2017-Jun-16 20:00S 26°56' E 153°12'714.3
2017-Jun-16 19:30S 26°49' E 153°09'711.6
2017-Jun-16 18:57S 26°43' E 153°11'4 8.6
2017-Jun-16 18:30S 26°44' E 153°15'5 9.9
2017-Jun-16 18:00S 26°46' E 153°20'710.1
2017-Jun-16 17:17S 26°49' E 153°27'2211.4
2017-Jun-16 15:21S 27°02' E 153°48'32414.7
2017-Jun-15 17:21S 32°22' E 152°47'615.2
2017-Jun-15 16:59S 32°27' E 152°45'715.4
2017-Jun-15 16:30S 32°34' E 152°41'815.6
2017-Jun-15 16:01S 32°40' E 152°36'815.9
2017-Jun-15 15:31S 32°47' E 152°31'816.4
2017-Jun-15 15:00S 32°54' E 152°26'1716.8
2017-Jun-15 14:01S 33°08' E 152°15'4916.4
2017-Jun-15 11:02S 33°49' E 151°44'516.1
2017-Jun-15 10:43S 33°54' E 151°41'250 8.3
2017-Jun-14 04:46S 37°49' E 149°58'516.6
2017-Jun-14 04:30S 37°53' E 149°55'816.6
2017-Jun-14 04:00S 37°58' E 149°46'816.5
2017-Jun-14 03:30S 38°03' E 149°37'816.6
2017-Jun-14 02:59S 38°07' E 149°28'1116.5
2017-Jun-14 02:20S 38°13' E 149°17'516.4
2017-Jun-14 02:00S 38°17' E 149°12'816.0
2017-Jun-14 01:30S 38°21' E 149°03'816.3
2017-Jun-14 01:01S 38°26' E 148°55'1416.3
2017-Jun-14 00:07S 38°34' E 148°40'216.0
2017-Jun-14 00:00S 38°35' E 148°38'2617.0
2017-Jun-13 22:29S 38°48' E 148°09'1317.0
2017-Jun-13 21:45S 38°53' E 147°54'417.0
2017-Jun-13 21:30S 38°54' E 147°49'917.0
2017-Jun-13 20:57S 38°58' E 147°38'1017.3
2017-Jun-13 20:24S 39°01' E 147°26'12911.8
2017-Jun-13 09:27S 38°10' E 144°54'917.9
2017-Jun-13 08:56S 38°01' E 144°55'715.1
2017-Jun-13 08:27S 37°53' E 144°56'1 0.1
2017-Jun-12 18:50S 37°52' E 144°55'512.1
2017-Jun-12 18:27S 37°57' E 144°56'715.4
2017-Jun-12 17:58S 38°04' E 144°55'  
Track history (hours):
 
Tides and Currents Weather Stations Pressure Air Temp Water Temp Dewpoint Dewpoint Depression Visibility Wind Speed Wind Dir Waves Ship Positions

Tiger

Last reported at 2017-Jun-17 12:33 UTC. Time now 2017-Jun-23 13:53 UTC.
Position S 26°40' E 153°14'.

Length 231 m; draft 8 m.

Type: Cargo ship. MMSI: 248223000.

Date/timePositionNaut miles runAvg speedWind from/ knotsBaromVisibWave heightAir tempDewpointWater temp
2017-Jun-17 12:33S 26°40' E 153°14'217.4
2017-Jun-17 12:27S 26°41' E 153°12'511.5
2017-Jun-17 11:59S 26°46' E 153°11'714.8
2017-Jun-17 11:30S 26°53' E 153°10'817.0
2017-Jun-17 11:00S 27°01' E 153°15'815.9
2017-Jun-17 10:30S 27°07' E 153°20'815.7
2017-Jun-17 10:00S 27°15' E 153°19'815.7
2017-Jun-17 09:30S 27°20' E 153°12'4 7.0
2017-Jun-17 09:00S 27°23' E 153°10'0 0.0
2017-Jun-17 08:28S 27°23' E 153°10'0 0.0
2017-Jun-17 07:58S 27°23' E 153°10'0 0.0
2017-Jun-17 07:28S 27°23' E 153°10'0 0.0
2017-Jun-17 06:58S 27°23' E 153°10'0 0.0
2017-Jun-17 06:28S 27°23' E 153°10'0 0.0
2017-Jun-17 05:58S 27°23' E 153°10'0 0.0
2017-Jun-17 05:28S 27°23' E 153°10'0 0.0
2017-Jun-17 04:58S 27°23' E 153°10'0 0.0
2017-Jun-17 04:19S 27°23' E 153°10'0 0.0
2017-Jun-17 03:58S 27°23' E 153°10'0 0.0
2017-Jun-17 03:28S 27°23' E 153°10'0 0.0
2017-Jun-17 02:58S 27°23' E 153°10'0 0.0
2017-Jun-17 02:28S 27°23' E 153°10'0 0.0
2017-Jun-17 02:00S 27°23' E 153°10'0 0.0
2017-Jun-17 01:28S 27°23' E 153°10'0 0.0
2017-Jun-17 00:58S 27°23' E 153°10'0 0.0
2017-Jun-17 00:28S 27°23' E 153°10'0 0.0
2017-Jun-17 00:01S 27°23' E 153°10'0 0.0
2017-Jun-16 23:28S 27°23' E 153°10'0 0.0
2017-Jun-16 22:58S 27°23' E 153°10'0 0.2
2017-Jun-16 22:31S 27°23' E 153°10'3 6.4
2017-Jun-16 22:00S 27°20' E 153°12'713.6
2017-Jun-16 21:30S 27°15' E 153°18'815.2
2017-Jun-16 21:00S 27°09' E 153°21'815.1
2017-Jun-16 20:30S 27°03' E 153°16'714.8
2017-Jun-16 20:00S 26°56' E 153°12'714.3
2017-Jun-16 19:30S 26°49' E 153°09'711.6
2017-Jun-16 18:57S 26°43' E 153°11'4 8.6
2017-Jun-16 18:30S 26°44' E 153°15'5 9.9
2017-Jun-16 18:00S 26°46' E 153°20'710.1
2017-Jun-16 17:17S 26°49' E 153°27'2211.4
2017-Jun-16 15:21S 27°02' E 153°48'32414.7
2017-Jun-15 17:21S 32°22' E 152°47'615.2
2017-Jun-15 16:59S 32°27' E 152°45'715.4
2017-Jun-15 16:30S 32°34' E 152°41'815.6
2017-Jun-15 16:01S 32°40' E 152°36'815.9
2017-Jun-15 15:31S 32°47' E 152°31'816.4
2017-Jun-15 15:00S 32°54' E 152°26'1716.8
2017-Jun-15 14:01S 33°08' E 152°15'4916.4
2017-Jun-15 11:02S 33°49' E 151°44'516.1
2017-Jun-15 10:43S 33°54' E 151°41'250 8.3
2017-Jun-14 04:46S 37°49' E 149°58'516.6
2017-Jun-14 04:30S 37°53' E 149°55'816.6
2017-Jun-14 04:00S 37°58' E 149°46'816.5
2017-Jun-14 03:30S 38°03' E 149°37'816.6
2017-Jun-14 02:59S 38°07' E 149°28'1116.5
2017-Jun-14 02:20S 38°13' E 149°17'516.4
2017-Jun-14 02:00S 38°17' E 149°12'816.0
2017-Jun-14 01:30S 38°21' E 149°03'816.3
2017-Jun-14 01:01S 38°26' E 148°55'1416.3
2017-Jun-14 00:07S 38°34' E 148°40'216.0
2017-Jun-14 00:00S 38°35' E 148°38'2617.0
2017-Jun-13 22:29S 38°48' E 148°09'1317.0
2017-Jun-13 21:45S 38°53' E 147°54'417.0
2017-Jun-13 21:30S 38°54' E 147°49'917.0
2017-Jun-13 20:57S 38°58' E 147°38'1017.3
2017-Jun-13 20:24S 39°01' E 147°26'12911.8
2017-Jun-13 09:27S 38°10' E 144°54'917.9
2017-Jun-13 08:56S 38°01' E 144°55'715.1
2017-Jun-13 08:27S 37°53' E 144°56'1 0.1
2017-Jun-12 18:50S 37°52' E 144°55'512.1
2017-Jun-12 18:27S 37°57' E 144°56'715.4
2017-Jun-12 17:58S 38°04' E 144°55'  

Dump ship's entire track history